Tylertown, MS

1:35 PM CDT on September 29, 2016 (GMT -0500)
Smithburg Rd | | Change Station

Elev 300 ft 31.03 °N, 90.28 °W | Updated 23 seconds ago

Clear
Clear
81.0 °F
Feels Like 82 °F
N
3.0
Wind Variable Wind from ENE
Gusts 3.0 mph

Today
High -- | Low -- °F
--% Chance of Precip.
Yesterday
High -- | Low -- °F
Precip. -- in
Pressure 30.10 in
Visibility 10.0 miles
Clouds Clear
Heat Index 82 °F
Dew Point 61 °F
Humidity 50%
Rainfall 0.00 in
Snow Depth Not available.
6:53 AM 6:47 PM
Waning Crescent, 1% visible
METAR KMCB 291753Z AUTO 36009KT 10SM CLR 25/11 A3011 RMK AO2 SLP192 T02500106 10250 20178 58002
Pressure 30.10 in
Visibility 10.0 miles
Clouds Clear
Heat Index 82 °F
Dew Point 61 °F
Humidity 50%
Rainfall 0.00 in
Snow Depth Not available.
6:53 AM 6:47 PM
Waning Crescent, 1% visible
METAR KMCB 291753Z AUTO 36009KT 10SM CLR 25/11 A3011 RMK AO2 SLP192 T02500106 10250 20178 58002

10-Day Weather Forecast

Almanac

Astronomy

Sep. 29, 2016 Rise Set
Actual Time
Civil Twilight
Nautical Twilight
Astronomical Twilight
Moon
Length of Visible Light
Length of Day
Tomorrow will be .
, % of the Moon is Illuminated

Today's Extremes

State Highs State Lows

Community

WunderPhotos

Upload Photos

1,942,545 photos uploaded!

WunderBlog® & News

Nearby

Air Quality

  Air Quality AQ Index Pollutant
Not available.

Snow Depth

Station Depth Elevation

Earthquake Activity

City Distance Mag. Time & Date
Minimum magnitude displayed is 2.5.

Coastal Water Temperatures

Place Temperature

Stations

Nearby Weather Stations

Station Location Temp. Windchill Dew Point Humidity Wind Precip. Elev Updated Type
                   

Watches & Warnings

There are currently no watches in effect.